CMA CGM Maupassant — 2DSD6 — position and weather

sailwx.info

Track history (hours):
 
Tides and Currents Weather Stations Pressure Air Temp Water Temp Dewpoint Dewpoint Depression Visibility Wind Speed Wind Dir Waves Ship Positions

CMA CGM Maupassant

Last reported at 2017-Nov-18 11:54 UTC. Time now 2017-Nov-19 04:34 UTC.
Position N 36°51' W 075°51'.

Length 299 m; draft 11.8 m.

Type: Ship (hazmat cat A). MMSI: 235081604.

Date/timePositionNaut miles runAvg speedWind from/ knotsBaromVisibWave heightAir tempDewpointWater temp
2017-Nov-18 11:54N 36°51' W 075°51'4 9.2
2017-Nov-18 11:30N 36°54' W 075°55'4 8.7
2017-Nov-18 11:00N 36°56' W 075°59'510.2
2017-Nov-18 10:30N 36°58' W 076°05'1015.3
2017-Nov-18 09:51N 37°00' W 076°17'411.0
2017-Nov-18 09:30N 36°57' W 076°20'1 1.9
2017-Nov-18 08:50N 36°56' W 076°20'0 0.0
2017-Nov-18 08:29N 36°56' W 076°20'0 0.0
2017-Nov-18 07:20N 36°56' W 076°20'0 0.0
2017-Nov-18 06:44N 36°56' W 076°20'0 0.0
2017-Nov-18 06:26N 36°56' W 076°20'0 0.0
2017-Nov-18 04:11N 36°56' W 076°20'0 0.0
2017-Nov-18 03:59N 36°56' W 076°20'0 0.0
2017-Nov-18 03:29N 36°56' W 076°20'0 0.0
2017-Nov-18 02:59N 36°56' W 076°20'0 0.0
2017-Nov-18 02:23N 36°56' W 076°20'0 0.0
2017-Nov-18 01:53N 36°56' W 076°20'0 0.0
2017-Nov-18 01:29N 36°56' W 076°20'0 0.0
2017-Nov-18 00:59N 36°56' W 076°20'0 0.0
2017-Nov-18 00:29N 36°56' W 076°20'0 0.0
2017-Nov-17 23:47N 36°56' W 076°20'0 0.0
2017-Nov-17 23:29N 36°56' W 076°20'0 0.0
2017-Nov-17 22:59N 36°56' W 076°20'0 0.0
2017-Nov-17 22:29N 36°56' W 076°20'0 0.0
2017-Nov-17 21:59N 36°56' W 076°20'0 0.0
2017-Nov-17 21:29N 36°56' W 076°20'0 0.0
2017-Nov-17 20:59N 36°56' W 076°20'0 0.0
2017-Nov-17 20:29N 36°56' W 076°20'0 0.0
2017-Nov-17 19:59N 36°56' W 076°20'0 0.0
2017-Nov-17 19:29N 36°56' W 076°20'0 0.0
2017-Nov-17 18:59N 36°56' W 076°20'0 0.0
2017-Nov-17 18:29N 36°56' W 076°20'0 0.0
2017-Nov-17 17:59N 36°56' W 076°20'0 0.0
2017-Nov-17 17:29N 36°56' W 076°20'0 0.0
2017-Nov-17 16:59N 36°56' W 076°20'0 0.0
2017-Nov-17 16:29N 36°56' W 076°20'0 0.0
2017-Nov-17 15:59N 36°56' W 076°20'0 0.0
2017-Nov-17 15:29N 36°56' W 076°20'0 0.0
2017-Nov-17 14:59N 36°56' W 076°20'0 0.0
2017-Nov-17 14:29N 36°56' W 076°20'0 0.0
2017-Nov-17 13:59N 36°56' W 076°20'0 0.0
2017-Nov-17 13:29N 36°56' W 076°20'0 0.0
2017-Nov-17 12:56N 36°56' W 076°20'0 0.0
2017-Nov-17 12:29N 36°56' W 076°20'0 0.0
2017-Nov-17 11:59N 36°56' W 076°20'0 0.0
2017-Nov-17 11:29N 36°56' W 076°20'0 0.0
2017-Nov-17 10:59N 36°56' W 076°20'0 0.0
2017-Nov-17 10:30N 36°56' W 076°20'1 2.4
2017-Nov-17 10:00N 36°57' W 076°20'4 7.1
2017-Nov-17 09:30N 36°60' W 076°18'713.0
2017-Nov-17 08:59N 36°59' W 076°10'714.2
2017-Nov-17 08:30N 36°57' W 076°01'5 9.8
2017-Nov-17 08:00N 36°55' W 075°56'4 7.8
2017-Nov-17 07:30N 36°53' W 075°52'19012.2
2017-Nov-16 15:53N 39°38' W 073°51'616.2
2017-Nov-16 15:30N 39°44' W 073°51'816.1
2017-Nov-16 15:00N 39°52' W 073°50'816.1
2017-Nov-16 14:30N 39°60' W 073°49'816.0
2017-Nov-16 14:00N 40°08' W 073°50'19 9.5
2017-Nov-16 12:01N 40°27' W 073°49'0 7.8
2017-Nov-16 12:00N 40°27' W 073°49'4 7.8
2017-Nov-16 11:30N 40°29' W 073°53'510.9
2017-Nov-16 11:00N 40°31' W 073°60'612.6
2017-Nov-16 10:31N 40°37' W 074°03'1 1.0
2017-Nov-16 10:00N 40°37' W 074°03'0 0.0
2017-Nov-16 09:30N 40°37' W 074°03'0 0.0
2017-Nov-16 09:00N 40°37' W 074°03'0 0.1
2017-Nov-16 08:30N 40°37' W 074°03'0 0.1
2017-Nov-16 08:00N 40°37' W 074°03'0 0.0
2017-Nov-16 07:30N 40°37' W 074°03'0 0.1
2017-Nov-16 07:00N 40°37' W 074°03'0 0.3
2017-Nov-16 06:30N 40°37' W 074°03'0 0.2
2017-Nov-16 06:00N 40°37' W 074°03'0 0.1
2017-Nov-16 05:30N 40°37' W 074°03'0 0.0
2017-Nov-16 05:00N 40°37' W 074°03'0 0.1
2017-Nov-16 04:30N 40°37' W 074°03'0 0.1
2017-Nov-16 04:00N 40°37' W 074°03'0 0.0
2017-Nov-16 03:27N 40°37' W 074°03'0 0.0
2017-Nov-16 03:00N 40°37' W 074°03'0 0.1
2017-Nov-16 02:30N 40°37' W 074°03'0 0.2
2017-Nov-16 02:00N 40°37' W 074°03'0 0.4
2017-Nov-16 01:30N 40°37' W 074°04'0 0.2
2017-Nov-16 01:00N 40°37' W 074°04'0 0.1
2017-Nov-16 00:30N 40°37' W 074°03'1 2.7
2017-Nov-16 00:00N 40°39' W 074°03'3 6.4
2017-Nov-15 23:30N 40°39' W 074°08'1 3.0
2017-Nov-15 23:01N 40°40' W 074°09'0 0.2
2017-Nov-15 22:29N 40°40' W 074°09'0 0.0
2017-Nov-15 21:59N 40°40' W 074°09'0 0.0
2017-Nov-15 21:29N 40°40' W 074°09'0 0.0
2017-Nov-15 20:59N 40°40' W 074°09'0 0.0
2017-Nov-15 20:29N 40°40' W 074°09'0 0.0
2017-Nov-15 19:59N 40°40' W 074°09'0 0.0
2017-Nov-15 19:29N 40°40' W 074°09'0 0.0
2017-Nov-15 18:59N 40°40' W 074°09'0 0.0
2017-Nov-15 18:29N 40°40' W 074°09'0 0.0
2017-Nov-15 17:59N 40°40' W 074°09'0 0.0
2017-Nov-15 17:29N 40°40' W 074°09'0 0.0
2017-Nov-15 16:59N 40°40' W 074°09'0 0.0
2017-Nov-15 16:29N 40°40' W 074°09'0 0.0
2017-Nov-15 15:59N 40°40' W 074°09'0 0.0
2017-Nov-15 15:29N 40°40' W 074°09'0 0.0
2017-Nov-15 14:59N 40°40' W 074°09'0 0.0
2017-Nov-15 14:29N 40°40' W 074°09'0 0.0
2017-Nov-15 13:59N 40°40' W 074°09'0 0.0
2017-Nov-15 13:29N 40°40' W 074°09'0 0.0
2017-Nov-15 12:59N 40°40' W 074°09'0 0.0
2017-Nov-15 12:29N 40°40' W 074°09'0 0.0
2017-Nov-15 11:59N 40°40' W 074°09'0 0.0
2017-Nov-15 11:29N 40°40' W 074°09'0 0.0
2017-Nov-15 11:00N 40°40' W 074°09'0 0.0
2017-Nov-15 10:29N 40°40' W 074°09'0 0.0
2017-Nov-15 09:59N 40°40' W 074°09'0 0.0
2017-Nov-15 09:29N 40°40' W 074°09'0 0.0
2017-Nov-15 08:59N 40°40' W 074°09'0 0.0
2017-Nov-15 08:29N 40°40' W 074°09'0 0.0
2017-Nov-15 07:59N 40°40' W 074°09'0 0.0
2017-Nov-15 07:30N 40°40' W 074°09'0 0.0
2017-Nov-15 06:59N 40°40' W 074°09'0 0.0
2017-Nov-15 06:29N 40°40' W 074°09'0 0.0
2017-Nov-15 05:59N 40°40' W 074°09'0 0.1
2017-Nov-15 05:28N 40°40' W 074°09'0 0.1
2017-Nov-15 05:00N 40°40' W 074°09'0 0.0
2017-Nov-15 04:30N 40°40' W 074°09'0 0.0
2017-Nov-15 03:57N 40°40' W 074°09'0 0.0
2017-Nov-15 03:30N 40°40' W 074°09'0 0.0
2017-Nov-15 03:00N 40°40' W 074°09'0 0.0
2017-Nov-15 02:30N 40°40' W 074°09'0 0.0
2017-Nov-15 02:00N 40°40' W 074°09'0 0.0
2017-Nov-15 01:30N 40°40' W 074°09'0 0.0
2017-Nov-15 01:00N 40°40' W 074°09'0 0.0
2017-Nov-15 00:30N 40°40' W 074°09'0 0.1
2017-Nov-15 00:01N 40°40' W 074°09'0 0.4
2017-Nov-14 23:31N 40°40' W 074°09'0 0.1
2017-Nov-14 23:01N 40°40' W 074°09'1 1.1
2017-Nov-14 22:31N 40°39' W 074°09'2 4.6
2017-Nov-14 22:00N 40°39' W 074°06'3 5.4
2017-Nov-14 21:30N 40°37' W 074°03'611.9
2017-Nov-14 21:00N 40°32' W 074°01'612.3
2017-Nov-14 20:30N 40°29' W 073°53'5 9.3
2017-Nov-14 20:00N 40°27' W 073°48'3 5.4
2017-Nov-14 19:30N 40°28' W 073°45'2 3.4
2017-Nov-14 19:00N 40°29' W 073°47'0 0.0
2017-Nov-14 18:30N 40°29' W 073°47'0 0.0
2017-Nov-14 17:57N 40°29' W 073°47'0 0.1
2017-Nov-14 17:30N 40°29' W 073°47'0 0.0
2017-Nov-14 17:00N 40°29' W 073°47'0 0.1
2017-Nov-14 16:30N 40°29' W 073°47'0 0.1
2017-Nov-14 15:54N 40°29' W 073°47'0 0.1
2017-Nov-14 15:27N 40°29' W 073°47'0 0.1
2017-Nov-14 15:00N 40°29' W 073°47'0 0.0
2017-Nov-14 14:24N 40°29' W 073°47'0 0.1
2017-Nov-14 14:00N 40°29' W 073°47'0 0.1
2017-Nov-14 13:30N 40°29' W 073°47'0 0.0
2017-Nov-14 12:57N 40°29' W 073°47'0 0.0
2017-Nov-14 12:06N 40°29' W 073°47'0 0.2
2017-Nov-14 12:00N 40°29' W 073°47'0 0.0
2017-Nov-14 11:30N 40°29' W 073°47'0 0.1
2017-Nov-14 11:00N 40°29' W 073°47'1 2.0
2017-Nov-14 10:30N 40°29' W 073°46'3 6.5
2017-Nov-14 10:00N 40°28' W 073°41'4 8.4
2017-Nov-14 09:29N 40°28' W 073°36'4 8.5
2017-Nov-14 09:00N 40°28' W 073°30'  
Track history (hours):
 
Tides and Currents Weather Stations Pressure Air Temp Water Temp Dewpoint Dewpoint Depression Visibility Wind Speed Wind Dir Waves Ship Positions

CMA CGM Maupassant

Last reported at 2017-Nov-18 11:54 UTC. Time now 2017-Nov-19 04:34 UTC.
Position N 36°51' W 075°51'.

Length 299 m; draft 11.8 m.

Type: Ship (hazmat cat A). MMSI: 235081604.

Date/timePositionNaut miles runAvg speedWind from/ knotsBaromVisibWave heightAir tempDewpointWater temp
2017-Nov-18 11:54N 36°51' W 075°51'4 9.2
2017-Nov-18 11:30N 36°54' W 075°55'4 8.7
2017-Nov-18 11:00N 36°56' W 075°59'510.2
2017-Nov-18 10:30N 36°58' W 076°05'1015.3
2017-Nov-18 09:51N 37°00' W 076°17'411.0
2017-Nov-18 09:30N 36°57' W 076°20'1 1.9
2017-Nov-18 08:50N 36°56' W 076°20'0 0.0
2017-Nov-18 08:29N 36°56' W 076°20'0 0.0
2017-Nov-18 07:20N 36°56' W 076°20'0 0.0
2017-Nov-18 06:44N 36°56' W 076°20'0 0.0
2017-Nov-18 06:26N 36°56' W 076°20'0 0.0
2017-Nov-18 04:11N 36°56' W 076°20'0 0.0
2017-Nov-18 03:59N 36°56' W 076°20'0 0.0
2017-Nov-18 03:29N 36°56' W 076°20'0 0.0
2017-Nov-18 02:59N 36°56' W 076°20'0 0.0
2017-Nov-18 02:23N 36°56' W 076°20'0 0.0
2017-Nov-18 01:53N 36°56' W 076°20'0 0.0
2017-Nov-18 01:29N 36°56' W 076°20'0 0.0
2017-Nov-18 00:59N 36°56' W 076°20'0 0.0
2017-Nov-18 00:29N 36°56' W 076°20'0 0.0
2017-Nov-17 23:47N 36°56' W 076°20'0 0.0
2017-Nov-17 23:29N 36°56' W 076°20'0 0.0
2017-Nov-17 22:59N 36°56' W 076°20'0 0.0
2017-Nov-17 22:29N 36°56' W 076°20'0 0.0
2017-Nov-17 21:59N 36°56' W 076°20'0 0.0
2017-Nov-17 21:29N 36°56' W 076°20'0 0.0
2017-Nov-17 20:59N 36°56' W 076°20'0 0.0
2017-Nov-17 20:29N 36°56' W 076°20'0 0.0
2017-Nov-17 19:59N 36°56' W 076°20'0 0.0
2017-Nov-17 19:29N 36°56' W 076°20'0 0.0
2017-Nov-17 18:59N 36°56' W 076°20'0 0.0
2017-Nov-17 18:29N 36°56' W 076°20'0 0.0
2017-Nov-17 17:59N 36°56' W 076°20'0 0.0
2017-Nov-17 17:29N 36°56' W 076°20'0 0.0
2017-Nov-17 16:59N 36°56' W 076°20'0 0.0
2017-Nov-17 16:29N 36°56' W 076°20'0 0.0
2017-Nov-17 15:59N 36°56' W 076°20'0 0.0
2017-Nov-17 15:29N 36°56' W 076°20'0 0.0
2017-Nov-17 14:59N 36°56' W 076°20'0 0.0
2017-Nov-17 14:29N 36°56' W 076°20'0 0.0
2017-Nov-17 13:59N 36°56' W 076°20'0 0.0
2017-Nov-17 13:29N 36°56' W 076°20'0 0.0
2017-Nov-17 12:56N 36°56' W 076°20'0 0.0
2017-Nov-17 12:29N 36°56' W 076°20'0 0.0
2017-Nov-17 11:59N 36°56' W 076°20'0 0.0
2017-Nov-17 11:29N 36°56' W 076°20'0 0.0
2017-Nov-17 10:59N 36°56' W 076°20'0 0.0
2017-Nov-17 10:30N 36°56' W 076°20'1 2.4
2017-Nov-17 10:00N 36°57' W 076°20'4 7.1
2017-Nov-17 09:30N 36°60' W 076°18'713.0
2017-Nov-17 08:59N 36°59' W 076°10'714.2
2017-Nov-17 08:30N 36°57' W 076°01'5 9.8
2017-Nov-17 08:00N 36°55' W 075°56'4 7.8
2017-Nov-17 07:30N 36°53' W 075°52'19012.2
2017-Nov-16 15:53N 39°38' W 073°51'616.2
2017-Nov-16 15:30N 39°44' W 073°51'816.1
2017-Nov-16 15:00N 39°52' W 073°50'816.1
2017-Nov-16 14:30N 39°60' W 073°49'816.0
2017-Nov-16 14:00N 40°08' W 073°50'19 9.5
2017-Nov-16 12:01N 40°27' W 073°49'0 7.8
2017-Nov-16 12:00N 40°27' W 073°49'4 7.8
2017-Nov-16 11:30N 40°29' W 073°53'510.9
2017-Nov-16 11:00N 40°31' W 073°60'612.6
2017-Nov-16 10:31N 40°37' W 074°03'1 1.0
2017-Nov-16 10:00N 40°37' W 074°03'0 0.0
2017-Nov-16 09:30N 40°37' W 074°03'0 0.0
2017-Nov-16 09:00N 40°37' W 074°03'0 0.1
2017-Nov-16 08:30N 40°37' W 074°03'0 0.1
2017-Nov-16 08:00N 40°37' W 074°03'0 0.0
2017-Nov-16 07:30N 40°37' W 074°03'0 0.1
2017-Nov-16 07:00N 40°37' W 074°03'0 0.3
2017-Nov-16 06:30N 40°37' W 074°03'0 0.2
2017-Nov-16 06:00N 40°37' W 074°03'0 0.1
2017-Nov-16 05:30N 40°37' W 074°03'0 0.0
2017-Nov-16 05:00N 40°37' W 074°03'0 0.1
2017-Nov-16 04:30N 40°37' W 074°03'0 0.1
2017-Nov-16 04:00N 40°37' W 074°03'0 0.0
2017-Nov-16 03:27N 40°37' W 074°03'0 0.0
2017-Nov-16 03:00N 40°37' W 074°03'0 0.1
2017-Nov-16 02:30N 40°37' W 074°03'0 0.2
2017-Nov-16 02:00N 40°37' W 074°03'0 0.4
2017-Nov-16 01:30N 40°37' W 074°04'0 0.2
2017-Nov-16 01:00N 40°37' W 074°04'0 0.1
2017-Nov-16 00:30N 40°37' W 074°03'1 2.7
2017-Nov-16 00:00N 40°39' W 074°03'3 6.4
2017-Nov-15 23:30N 40°39' W 074°08'1 3.0
2017-Nov-15 23:01N 40°40' W 074°09'0 0.2
2017-Nov-15 22:29N 40°40' W 074°09'0 0.0
2017-Nov-15 21:59N 40°40' W 074°09'0 0.0
2017-Nov-15 21:29N 40°40' W 074°09'0 0.0
2017-Nov-15 20:59N 40°40' W 074°09'0 0.0
2017-Nov-15 20:29N 40°40' W 074°09'0 0.0
2017-Nov-15 19:59N 40°40' W 074°09'0 0.0
2017-Nov-15 19:29N 40°40' W 074°09'0 0.0
2017-Nov-15 18:59N 40°40' W 074°09'0 0.0
2017-Nov-15 18:29N 40°40' W 074°09'0 0.0
2017-Nov-15 17:59N 40°40' W 074°09'0 0.0
2017-Nov-15 17:29N 40°40' W 074°09'0 0.0
2017-Nov-15 16:59N 40°40' W 074°09'0 0.0
2017-Nov-15 16:29N 40°40' W 074°09'0 0.0
2017-Nov-15 15:59N 40°40' W 074°09'0 0.0
2017-Nov-15 15:29N 40°40' W 074°09'0 0.0
2017-Nov-15 14:59N 40°40' W 074°09'0 0.0
2017-Nov-15 14:29N 40°40' W 074°09'0 0.0
2017-Nov-15 13:59N 40°40' W 074°09'0 0.0
2017-Nov-15 13:29N 40°40' W 074°09'0 0.0
2017-Nov-15 12:59N 40°40' W 074°09'0 0.0
2017-Nov-15 12:29N 40°40' W 074°09'0 0.0
2017-Nov-15 11:59N 40°40' W 074°09'0 0.0
2017-Nov-15 11:29N 40°40' W 074°09'0 0.0
2017-Nov-15 11:00N 40°40' W 074°09'0 0.0
2017-Nov-15 10:29N 40°40' W 074°09'0 0.0
2017-Nov-15 09:59N 40°40' W 074°09'0 0.0
2017-Nov-15 09:29N 40°40' W 074°09'0 0.0
2017-Nov-15 08:59N 40°40' W 074°09'0 0.0
2017-Nov-15 08:29N 40°40' W 074°09'0 0.0
2017-Nov-15 07:59N 40°40' W 074°09'0 0.0
2017-Nov-15 07:30N 40°40' W 074°09'0 0.0
2017-Nov-15 06:59N 40°40' W 074°09'0 0.0
2017-Nov-15 06:29N 40°40' W 074°09'0 0.0
2017-Nov-15 05:59N 40°40' W 074°09'0 0.1
2017-Nov-15 05:28N 40°40' W 074°09'0 0.1
2017-Nov-15 05:00N 40°40' W 074°09'0 0.0
2017-Nov-15 04:30N 40°40' W 074°09'0 0.0
2017-Nov-15 03:57N 40°40' W 074°09'0 0.0
2017-Nov-15 03:30N 40°40' W 074°09'0 0.0
2017-Nov-15 03:00N 40°40' W 074°09'0 0.0
2017-Nov-15 02:30N 40°40' W 074°09'0 0.0
2017-Nov-15 02:00N 40°40' W 074°09'0 0.0
2017-Nov-15 01:30N 40°40' W 074°09'0 0.0
2017-Nov-15 01:00N 40°40' W 074°09'0 0.0
2017-Nov-15 00:30N 40°40' W 074°09'0 0.1
2017-Nov-15 00:01N 40°40' W 074°09'0 0.4
2017-Nov-14 23:31N 40°40' W 074°09'0 0.1
2017-Nov-14 23:01N 40°40' W 074°09'1 1.1
2017-Nov-14 22:31N 40°39' W 074°09'2 4.6
2017-Nov-14 22:00N 40°39' W 074°06'3 5.4
2017-Nov-14 21:30N 40°37' W 074°03'611.9
2017-Nov-14 21:00N 40°32' W 074°01'612.3
2017-Nov-14 20:30N 40°29' W 073°53'5 9.3
2017-Nov-14 20:00N 40°27' W 073°48'3 5.4
2017-Nov-14 19:30N 40°28' W 073°45'2 3.4
2017-Nov-14 19:00N 40°29' W 073°47'0 0.0
2017-Nov-14 18:30N 40°29' W 073°47'0 0.0
2017-Nov-14 17:57N 40°29' W 073°47'0 0.1
2017-Nov-14 17:30N 40°29' W 073°47'0 0.0
2017-Nov-14 17:00N 40°29' W 073°47'0 0.1
2017-Nov-14 16:30N 40°29' W 073°47'0 0.1
2017-Nov-14 15:54N 40°29' W 073°47'0 0.1
2017-Nov-14 15:27N 40°29' W 073°47'0 0.1
2017-Nov-14 15:00N 40°29' W 073°47'0 0.0
2017-Nov-14 14:24N 40°29' W 073°47'0 0.1
2017-Nov-14 14:00N 40°29' W 073°47'0 0.1
2017-Nov-14 13:30N 40°29' W 073°47'0 0.0
2017-Nov-14 12:57N 40°29' W 073°47'0 0.0
2017-Nov-14 12:06N 40°29' W 073°47'0 0.2
2017-Nov-14 12:00N 40°29' W 073°47'0 0.0
2017-Nov-14 11:30N 40°29' W 073°47'0 0.1
2017-Nov-14 11:00N 40°29' W 073°47'1 2.0
2017-Nov-14 10:30N 40°29' W 073°46'3 6.5
2017-Nov-14 10:00N 40°28' W 073°41'4 8.4
2017-Nov-14 09:29N 40°28' W 073°36'4 8.5
2017-Nov-14 09:00N 40°28' W 073°30'  

Dump ship's entire track history